sensor_id;sensor_type;location;lat;lon;timestamp;P1;durP1;ratioP1;P2;durP2;ratioP2
6928;SDS011;3504;52.616;13.238;2022-10-31T00:00:16;23.13;;;15.03;;
6928;SDS011;3504;52.616;13.238;2022-10-31T00:05:17;22.07;;;16.13;;
6928;SDS011;3504;52.616;13.238;2022-10-31T00:10:17;21.17;;;16.50;;
6928;SDS011;3504;52.616;13.238;2022-10-31T00:15:18;24.70;;;16.57;;
6928;SDS011;3504;52.616;13.238;2022-10-31T00:20:18;22.13;;;17.00;;
6928;SDS011;3504;52.616;13.238;2022-10-31T00:25:19;21.67;;;16.30;;
6928;SDS011;3504;52.616;13.238;2022-10-31T00:30:20;24.77;;;16.87;;
6928;SDS011;3504;52.616;13.238;2022-10-31T00:35:21;23.27;;;17.23;;
6928;SDS011;3504;52.616;13.238;2022-10-31T00:40:22;23.17;;;17.83;;
6928;SDS011;3504;52.616;13.238;2022-10-31T00:45:22;24.23;;;18.00;;
6928;SDS011;3504;52.616;13.238;2022-10-31T00:50:22;24.33;;;18.27;;
6928;SDS011;3504;52.616;13.238;2022-10-31T00:55:24;25.77;;;19.00;;
6928;SDS011;3504;52.616;13.238;2022-10-31T01:00:25;25.47;;;19.93;;
6928;SDS011;3504;52.616;13.238;2022-10-31T01:05:26;25.93;;;18.60;;
6928;SDS011;3504;52.616;13.238;2022-10-31T01:10:26;29.83;;;19.30;;
6928;SDS011;3504;52.616;13.238;2022-10-31T01:15:27;28.83;;;20.70;;
6928;SDS011;3504;52.616;13.238;2022-10-31T01:20:27;28.07;;;19.57;;
6928;SDS011;3504;52.616;13.238;2022-10-31T01:25:28;31.83;;;21.50;;
6928;SDS011;3504;52.616;13.238;2022-10-31T01:30:28;27.23;;;19.90;;
6928;SDS011;3504;52.616;13.238;2022-10-31T01:35:29;28.97;;;19.47;;
6928;SDS011;3504;52.616;13.238;2022-10-31T01:40:30;27.33;;;19.90;;
6928;SDS011;3504;52.616;13.238;2022-10-31T01:45:30;26.57;;;21.03;;
6928;SDS011;3504;52.616;13.238;2022-10-31T01:50:32;31.00;;;23.03;;
6928;SDS011;3504;52.616;13.238;2022-10-31T01:55:38;28.40;;;21.93;;
6928;SDS011;3504;52.616;13.238;2022-10-31T02:00:42;29.57;;;21.17;;
6928;SDS011;3504;52.616;13.238;2022-10-31T02:05:46;28.30;;;21.93;;
6928;SDS011;3504;52.616;13.238;2022-10-31T02:10:47;28.90;;;19.90;;
6928;SDS011;3504;52.616;13.238;2022-10-31T02:15:52;29.30;;;20.57;;
6928;SDS011;3504;52.616;13.238;2022-10-31T02:32:18;27.50;;;19.50;;
6928;SDS011;3504;52.616;13.238;2022-10-31T02:37:48;27.67;;;20.97;;
6928;SDS011;3504;52.616;13.238;2022-10-31T02:48:31;28.93;;;20.03;;
6928;SDS011;3504;52.616;13.238;2022-10-31T02:53:37;30.70;;;21.77;;
6928;SDS011;3504;52.616;13.238;2022-10-31T02:58:42;23.90;;;19.73;;
6928;SDS011;3504;52.616;13.238;2022-10-31T03:04:02;29.47;;;20.53;;
6928;SDS011;3504;52.616;13.238;2022-10-31T03:09:22;27.60;;;21.77;;
6928;SDS011;3504;52.616;13.238;2022-10-31T03:14:41;32.57;;;19.93;;
6928;SDS011;3504;52.616;13.238;2022-10-31T03:19:46;28.33;;;21.33;;
6928;SDS011;3504;52.616;13.238;2022-10-31T03:24:49;31.80;;;21.00;;
6928;SDS011;3504;52.616;13.238;2022-10-31T03:29:55;28.43;;;21.73;;
6928;SDS011;3504;52.616;13.238;2022-10-31T03:35:02;28.20;;;21.10;;
6928;SDS011;3504;52.616;13.238;2022-10-31T03:40:06;27.60;;;20.13;;
6928;SDS011;3504;52.616;13.238;2022-10-31T03:45:13;26.20;;;20.20;;
6928;SDS011;3504;52.616;13.238;2022-10-31T03:50:20;29.20;;;21.30;;
6928;SDS011;3504;52.616;13.238;2022-10-31T03:55:46;24.70;;;19.67;;
6928;SDS011;3504;52.616;13.238;2022-10-31T04:00:52;29.03;;;19.33;;
6928;SDS011;3504;52.616;13.238;2022-10-31T04:05:56;29.53;;;20.33;;
6928;SDS011;3504;52.616;13.238;2022-10-31T04:11:03;29.63;;;19.40;;
6928;SDS011;3504;52.616;13.238;2022-10-31T04:16:08;25.83;;;18.27;;
6928;SDS011;3504;52.616;13.238;2022-10-31T04:21:09;27.50;;;19.47;;
6928;SDS011;3504;52.616;13.238;2022-10-31T04:26:10;23.00;;;18.67;;
6928;SDS011;3504;52.616;13.238;2022-10-31T04:31:12;28.67;;;19.47;;
6928;SDS011;3504;52.616;13.238;2022-10-31T04:36:15;23.77;;;17.93;;
6928;SDS011;3504;52.616;13.238;2022-10-31T04:41:16;23.37;;;17.67;;
6928;SDS011;3504;52.616;13.238;2022-10-31T04:46:34;28.53;;;19.33;;
6928;SDS011;3504;52.616;13.238;2022-10-31T04:51:35;22.93;;;17.77;;
6928;SDS011;3504;52.616;13.238;2022-10-31T04:56:36;27.73;;;18.60;;
6928;SDS011;3504;52.616;13.238;2022-10-31T05:01:43;23.67;;;18.27;;
6928;SDS011;3504;52.616;13.238;2022-10-31T05:06:45;25.20;;;18.30;;
6928;SDS011;3504;52.616;13.238;2022-10-31T05:11:45;25.83;;;17.67;;
6928;SDS011;3504;52.616;13.238;2022-10-31T05:17:11;25.43;;;16.90;;
6928;SDS011;3504;52.616;13.238;2022-10-31T05:22:31;23.97;;;17.83;;
6928;SDS011;3504;52.616;13.238;2022-10-31T05:27:31;27.10;;;17.93;;
6928;SDS011;3504;52.616;13.238;2022-10-31T05:32:41;27.57;;;17.30;;
6928;SDS011;3504;52.616;13.238;2022-10-31T05:38:13;24.33;;;17.23;;
6928;SDS011;3504;52.616;13.238;2022-10-31T05:43:14;25.33;;;17.73;;
6928;SDS011;3504;52.616;13.238;2022-10-31T05:48:15;24.43;;;16.23;;
6928;SDS011;3504;52.616;13.238;2022-10-31T05:53:38;27.33;;;18.17;;
6928;SDS011;3504;52.616;13.238;2022-10-31T05:58:39;20.57;;;16.73;;
6928;SDS011;3504;52.616;13.238;2022-10-31T06:03:41;22.33;;;15.30;;
6928;SDS011;3504;52.616;13.238;2022-10-31T06:08:43;25.30;;;17.30;;
6928;SDS011;3504;52.616;13.238;2022-10-31T06:13:55;23.07;;;17.20;;
6928;SDS011;3504;52.616;13.238;2022-10-31T06:19:06;26.03;;;17.20;;
6928;SDS011;3504;52.616;13.238;2022-10-31T06:24:08;28.30;;;17.13;;
6928;SDS011;3504;52.616;13.238;2022-10-31T06:29:33;22.73;;;16.83;;
6928;SDS011;3504;52.616;13.238;2022-10-31T06:34:44;25.00;;;16.50;;
6928;SDS011;3504;52.616;13.238;2022-10-31T06:39:48;24.23;;;17.03;;
6928;SDS011;3504;52.616;13.238;2022-10-31T06:44:50;27.80;;;17.57;;
6928;SDS011;3504;52.616;13.238;2022-10-31T06:50:20;25.93;;;16.93;;
6928;SDS011;3504;52.616;13.238;2022-10-31T06:55:21;23.03;;;17.93;;
6928;SDS011;3504;52.616;13.238;2022-10-31T07:00:23;23.83;;;17.47;;
6928;SDS011;3504;52.616;13.238;2022-10-31T07:05:33;22.93;;;17.47;;
6928;SDS011;3504;52.616;13.238;2022-10-31T07:10:34;30.70;;;20.80;;
6928;SDS011;3504;52.616;13.238;2022-10-31T07:15:40;27.37;;;20.07;;
6928;SDS011;3504;52.616;13.238;2022-10-31T07:20:42;31.13;;;20.10;;
6928;SDS011;3504;52.616;13.238;2022-10-31T07:25:43;27.90;;;21.00;;
6928;SDS011;3504;52.616;13.238;2022-10-31T07:30:56;27.13;;;21.10;;
6928;SDS011;3504;52.616;13.238;2022-10-31T07:35:58;31.53;;;21.93;;
6928;SDS011;3504;52.616;13.238;2022-10-31T07:41:04;30.77;;;20.50;;
6928;SDS011;3504;52.616;13.238;2022-10-31T07:46:07;27.17;;;19.23;;
6928;SDS011;3504;52.616;13.238;2022-10-31T07:51:16;29.03;;;19.03;;
6928;SDS011;3504;52.616;13.238;2022-10-31T07:56:37;28.07;;;19.97;;
6928;SDS011;3504;52.616;13.238;2022-10-31T08:01:37;27.03;;;20.03;;
6928;SDS011;3504;52.616;13.238;2022-10-31T08:06:56;28.87;;;19.67;;
6928;SDS011;3504;52.616;13.238;2022-10-31T08:12:05;29.27;;;21.00;;
6928;SDS011;3504;52.616;13.238;2022-10-31T08:17:07;32.10;;;21.40;;
6928;SDS011;3504;52.616;13.238;2022-10-31T08:22:17;27.90;;;19.80;;
6928;SDS011;3504;52.616;13.238;2022-10-31T08:27:18;38.77;;;24.87;;
6928;SDS011;3504;52.616;13.238;2022-10-31T08:32:19;35.57;;;24.13;;
6928;SDS011;3504;52.616;13.238;2022-10-31T08:37:31;31.80;;;21.43;;
6928;SDS011;3504;52.616;13.238;2022-10-31T08:42:32;37.37;;;22.93;;
6928;SDS011;3504;52.616;13.238;2022-10-31T08:47:32;35.90;;;23.40;;
6928;SDS011;3504;52.616;13.238;2022-10-31T08:52:33;38.27;;;24.73;;
6928;SDS011;3504;52.616;13.238;2022-10-31T08:57:36;32.17;;;23.73;;
6928;SDS011;3504;52.616;13.238;2022-10-31T09:02:37;37.93;;;24.13;;
6928;SDS011;3504;52.616;13.238;2022-10-31T09:07:38;36.23;;;23.00;;
6928;SDS011;3504;52.616;13.238;2022-10-31T09:12:39;34.83;;;22.83;;
6928;SDS011;3504;52.616;13.238;2022-10-31T09:18:02;37.20;;;24.07;;
6928;SDS011;3504;52.616;13.238;2022-10-31T09:23:10;36.57;;;22.70;;
6928;SDS011;3504;52.616;13.238;2022-10-31T09:28:15;36.30;;;25.20;;
6928;SDS011;3504;52.616;13.238;2022-10-31T09:33:20;35.60;;;23.57;;
6928;SDS011;3504;52.616;13.238;2022-10-31T09:38:41;37.90;;;24.57;;
6928;SDS011;3504;52.616;13.238;2022-10-31T09:43:45;34.10;;;24.80;;
6928;SDS011;3504;52.616;13.238;2022-10-31T09:59:46;37.17;;;26.17;;
6928;SDS011;3504;52.616;13.238;2022-10-31T10:04:53;37.27;;;24.63;;
6928;SDS011;3504;52.616;13.238;2022-10-31T10:10:04;33.37;;;24.23;;
6928;SDS011;3504;52.616;13.238;2022-10-31T10:16:44;34.80;;;25.87;;
6928;SDS011;3504;52.616;13.238;2022-10-31T10:32:57;36.10;;;25.20;;
6928;SDS011;3504;52.616;13.238;2022-10-31T10:38:11;36.07;;;24.87;;
6928;SDS011;3504;52.616;13.238;2022-10-31T10:43:45;37.63;;;26.33;;
6928;SDS011;3504;52.616;13.238;2022-10-31T10:54:29;36.93;;;25.07;;
6928;SDS011;3504;52.616;13.238;2022-10-31T10:59:44;39.57;;;25.00;;
6928;SDS011;3504;52.616;13.238;2022-10-31T11:04:53;37.93;;;26.93;;
6928;SDS011;3504;52.616;13.238;2022-10-31T11:10:04;39.50;;;26.40;;
6928;SDS011;3504;52.616;13.238;2022-10-31T11:15:21;39.20;;;26.23;;
6928;SDS011;3504;52.616;13.238;2022-10-31T11:20:25;43.28;;;29.23;;
6928;SDS011;3504;52.616;13.238;2022-10-31T11:25:36;39.77;;;28.10;;
6928;SDS011;3504;52.616;13.238;2022-10-31T11:30:43;43.93;;;29.97;;
6928;SDS011;3504;52.616;13.238;2022-10-31T11:35:51;44.37;;;30.13;;
6928;SDS011;3504;52.616;13.238;2022-10-31T11:46:29;45.33;;;31.43;;
6928;SDS011;3504;52.616;13.238;2022-10-31T11:51:36;45.20;;;30.50;;
6928;SDS011;3504;52.616;13.238;2022-10-31T11:56:38;49.93;;;34.10;;
6928;SDS011;3504;52.616;13.238;2022-10-31T12:01:45;51.37;;;35.10;;
6928;SDS011;3504;52.616;13.238;2022-10-31T12:06:49;55.17;;;35.90;;
6928;SDS011;3504;52.616;13.238;2022-10-31T12:17:45;54.13;;;37.33;;
6928;SDS011;3504;52.616;13.238;2022-10-31T12:23:40;53.90;;;37.90;;
6928;SDS011;3504;52.616;13.238;2022-10-31T12:46:16;58.33;;;39.80;;
6928;SDS011;3504;52.616;13.238;2022-10-31T12:57:23;62.67;;;40.67;;
6928;SDS011;3504;52.616;13.238;2022-10-31T13:08:19;70.93;;;41.90;;
6928;SDS011;3504;52.616;13.238;2022-10-31T13:13:33;65.53;;;41.60;;
6928;SDS011;3504;52.616;13.238;2022-10-31T13:19:19;65.33;;;42.00;;
6928;SDS011;3504;52.616;13.238;2022-10-31T13:24:35;65.80;;;42.17;;
6928;SDS011;3504;52.616;13.238;2022-10-31T13:29:42;71.33;;;43.77;;
6928;SDS011;3504;52.616;13.238;2022-10-31T13:35:19;61.57;;;41.97;;
6928;SDS011;3504;52.616;13.238;2022-10-31T13:40:33;69.47;;;42.07;;
6928;SDS011;3504;52.616;13.238;2022-10-31T13:45:51;68.53;;;43.03;;
6928;SDS011;3504;52.616;13.238;2022-10-31T13:50:55;66.97;;;43.60;;
6928;SDS011;3504;52.616;13.238;2022-10-31T14:01:13;67.17;;;42.60;;
6928;SDS011;3504;52.616;13.238;2022-10-31T14:06:19;69.63;;;44.13;;
6928;SDS011;3504;52.616;13.238;2022-10-31T14:11:22;73.83;;;44.07;;
6928;SDS011;3504;52.616;13.238;2022-10-31T14:16:28;76.43;;;44.67;;
6928;SDS011;3504;52.616;13.238;2022-10-31T14:21:36;71.40;;;46.33;;
6928;SDS011;3504;52.616;13.238;2022-10-31T14:26:50;77.80;;;46.17;;
6928;SDS011;3504;52.616;13.238;2022-10-31T14:31:56;83.63;;;47.23;;
6928;SDS011;3504;52.616;13.238;2022-10-31T14:42:32;79.63;;;47.10;;
6928;SDS011;3504;52.616;13.238;2022-10-31T14:53:42;80.77;;;47.40;;
6928;SDS011;3504;52.616;13.238;2022-10-31T14:58:55;75.47;;;44.97;;
6928;SDS011;3504;52.616;13.238;2022-10-31T15:04:15;83.80;;;48.43;;
6928;SDS011;3504;52.616;13.238;2022-10-31T15:09:25;87.50;;;48.37;;
6928;SDS011;3504;52.616;13.238;2022-10-31T15:14:31;86.87;;;50.20;;
6928;SDS011;3504;52.616;13.238;2022-10-31T15:19:32;90.93;;;49.63;;
6928;SDS011;3504;52.616;13.238;2022-10-31T15:24:35;88.63;;;48.63;;
6928;SDS011;3504;52.616;13.238;2022-10-31T15:29:46;122.70;;;48.43;;
6928;SDS011;3504;52.616;13.238;2022-10-31T15:34:52;82.30;;;46.40;;
6928;SDS011;3504;52.616;13.238;2022-10-31T15:39:55;84.07;;;46.53;;
6928;SDS011;3504;52.616;13.238;2022-10-31T15:50:19;80.00;;;45.67;;
6928;SDS011;3504;52.616;13.238;2022-10-31T15:55:32;78.13;;;42.33;;
6928;SDS011;3504;52.616;13.238;2022-10-31T16:00:38;73.17;;;39.77;;
6928;SDS011;3504;52.616;13.238;2022-10-31T16:05:46;107.23;;;41.43;;
6928;SDS011;3504;52.616;13.238;2022-10-31T16:16:00;91.43;;;39.23;;
6928;SDS011;3504;52.616;13.238;2022-10-31T16:21:12;85.50;;;45.20;;
6928;SDS011;3504;52.616;13.238;2022-10-31T16:26:14;62.10;;;39.83;;
6928;SDS011;3504;52.616;13.238;2022-10-31T16:31:25;74.63;;;43.77;;
6928;SDS011;3504;52.616;13.238;2022-10-31T16:36:31;56.27;;;36.97;;
6928;SDS011;3504;52.616;13.238;2022-10-31T16:41:38;156.87;;;39.70;;
6928;SDS011;3504;52.616;13.238;2022-10-31T16:46:43;70.83;;;40.03;;
6928;SDS011;3504;52.616;13.238;2022-10-31T16:51:43;80.63;;;41.87;;
6928;SDS011;3504;52.616;13.238;2022-10-31T16:56:44;84.80;;;40.37;;
6928;SDS011;3504;52.616;13.238;2022-10-31T17:01:45;108.07;;;43.97;;
6928;SDS011;3504;52.616;13.238;2022-10-31T17:06:48;75.90;;;39.97;;
6928;SDS011;3504;52.616;13.238;2022-10-31T17:11:49;70.17;;;39.97;;
6928;SDS011;3504;52.616;13.238;2022-10-31T17:16:52;78.47;;;40.73;;
6928;SDS011;3504;52.616;13.238;2022-10-31T17:21:53;60.07;;;39.77;;
6928;SDS011;3504;52.616;13.238;2022-10-31T17:26:53;115.20;;;47.43;;
6928;SDS011;3504;52.616;13.238;2022-10-31T17:31:54;98.40;;;45.93;;
6928;SDS011;3504;52.616;13.238;2022-10-31T17:36:54;74.40;;;45.87;;
6928;SDS011;3504;52.616;13.238;2022-10-31T17:41:55;115.67;;;47.83;;
6928;SDS011;3504;52.616;13.238;2022-10-31T17:46:55;84.97;;;45.90;;
6928;SDS011;3504;52.616;13.238;2022-10-31T17:51:56;79.90;;;45.83;;
6928;SDS011;3504;52.616;13.238;2022-10-31T17:56:56;115.17;;;48.93;;
6928;SDS011;3504;52.616;13.238;2022-10-31T18:01:57;72.20;;;43.23;;
6928;SDS011;3504;52.616;13.238;2022-10-31T18:06:59;71.87;;;42.67;;
6928;SDS011;3504;52.616;13.238;2022-10-31T18:12:00;139.33;;;44.33;;
6928;SDS011;3504;52.616;13.238;2022-10-31T18:17:00;158.57;;;44.97;;
6928;SDS011;3504;52.616;13.238;2022-10-31T18:22:01;72.07;;;40.60;;
6928;SDS011;3504;52.616;13.238;2022-10-31T18:27:01;119.77;;;41.27;;
6928;SDS011;3504;52.616;13.238;2022-10-31T18:32:02;117.97;;;43.33;;
6928;SDS011;3504;52.616;13.238;2022-10-31T18:37:02;72.20;;;41.17;;
6928;SDS011;3504;52.616;13.238;2022-10-31T18:42:03;70.90;;;38.80;;
6928;SDS011;3504;52.616;13.238;2022-10-31T18:47:03;67.27;;;38.70;;
6928;SDS011;3504;52.616;13.238;2022-10-31T18:52:04;67.47;;;39.23;;
6928;SDS011;3504;52.616;13.238;2022-10-31T18:57:04;62.03;;;38.40;;
6928;SDS011;3504;52.616;13.238;2022-10-31T19:02:05;59.40;;;37.10;;
6928;SDS011;3504;52.616;13.238;2022-10-31T19:07:05;62.00;;;37.40;;
6928;SDS011;3504;52.616;13.238;2022-10-31T19:12:06;67.07;;;37.07;;
6928;SDS011;3504;52.616;13.238;2022-10-31T19:17:06;62.33;;;36.43;;
6928;SDS011;3504;52.616;13.238;2022-10-31T19:22:07;63.00;;;36.27;;
6928;SDS011;3504;52.616;13.238;2022-10-31T19:27:09;56.63;;;35.57;;
6928;SDS011;3504;52.616;13.238;2022-10-31T19:32:09;58.03;;;37.00;;
6928;SDS011;3504;52.616;13.238;2022-10-31T19:37:10;55.60;;;36.70;;
6928;SDS011;3504;52.616;13.238;2022-10-31T19:42:10;49.83;;;35.47;;
6928;SDS011;3504;52.616;13.238;2022-10-31T19:47:11;66.30;;;37.10;;
6928;SDS011;3504;52.616;13.238;2022-10-31T19:52:11;100.60;;;37.60;;
6928;SDS011;3504;52.616;13.238;2022-10-31T19:57:12;60.50;;;37.80;;
6928;SDS011;3504;52.616;13.238;2022-10-31T20:02:12;58.70;;;37.83;;
6928;SDS011;3504;52.616;13.238;2022-10-31T20:07:18;76.87;;;38.37;;
6928;SDS011;3504;52.616;13.238;2022-10-31T20:12:19;65.67;;;38.07;;
6928;SDS011;3504;52.616;13.238;2022-10-31T20:17:19;56.47;;;36.27;;
6928;SDS011;3504;52.616;13.238;2022-10-31T20:22:20;57.73;;;38.67;;
6928;SDS011;3504;52.616;13.238;2022-10-31T20:27:20;60.00;;;37.53;;
6928;SDS011;3504;52.616;13.238;2022-10-31T20:32:21;56.57;;;37.97;;
6928;SDS011;3504;52.616;13.238;2022-10-31T20:37:21;60.83;;;38.23;;
6928;SDS011;3504;52.616;13.238;2022-10-31T20:42:22;58.27;;;38.13;;
6928;SDS011;3504;52.616;13.238;2022-10-31T20:47:22;52.10;;;35.37;;
6928;SDS011;3504;52.616;13.238;2022-10-31T20:52:23;85.53;;;40.60;;
6928;SDS011;3504;52.616;13.238;2022-10-31T20:57:23;62.03;;;39.17;;
6928;SDS011;3504;52.616;13.238;2022-10-31T21:02:24;63.10;;;40.40;;
6928;SDS011;3504;52.616;13.238;2022-10-31T21:07:24;58.83;;;38.70;;
6928;SDS011;3504;52.616;13.238;2022-10-31T21:12:25;74.43;;;42.00;;
6928;SDS011;3504;52.616;13.238;2022-10-31T21:17:26;62.30;;;39.67;;
6928;SDS011;3504;52.616;13.238;2022-10-31T21:22:27;61.80;;;40.40;;
6928;SDS011;3504;52.616;13.238;2022-10-31T21:27:28;65.73;;;40.80;;
6928;SDS011;3504;52.616;13.238;2022-10-31T21:32:30;63.00;;;40.43;;
6928;SDS011;3504;52.616;13.238;2022-10-31T21:37:30;62.53;;;41.67;;
6928;SDS011;3504;52.616;13.238;2022-10-31T21:42:31;61.83;;;40.60;;
6928;SDS011;3504;52.616;13.238;2022-10-31T21:47:34;72.17;;;44.73;;
6928;SDS011;3504;52.616;13.238;2022-10-31T21:52:34;68.00;;;43.03;;
6928;SDS011;3504;52.616;13.238;2022-10-31T21:57:35;76.57;;;45.60;;
6928;SDS011;3504;52.616;13.238;2022-10-31T22:02:35;75.90;;;45.63;;
6928;SDS011;3504;52.616;13.238;2022-10-31T22:07:36;72.13;;;45.50;;
6928;SDS011;3504;52.616;13.238;2022-10-31T22:12:36;79.83;;;47.67;;
6928;SDS011;3504;52.616;13.238;2022-10-31T22:17:38;70.97;;;46.07;;
6928;SDS011;3504;52.616;13.238;2022-10-31T22:22:38;69.80;;;46.37;;
6928;SDS011;3504;52.616;13.238;2022-10-31T22:27:38;79.07;;;48.03;;
6928;SDS011;3504;52.616;13.238;2022-10-31T22:32:40;80.67;;;47.43;;
6928;SDS011;3504;52.616;13.238;2022-10-31T22:37:41;75.43;;;48.07;;
6928;SDS011;3504;52.616;13.238;2022-10-31T22:42:41;71.10;;;47.93;;
6928;SDS011;3504;52.616;13.238;2022-10-31T22:47:42;77.77;;;49.03;;
6928;SDS011;3504;52.616;13.238;2022-10-31T22:52:42;91.20;;;51.67;;
6928;SDS011;3504;52.616;13.238;2022-10-31T22:57:43;76.50;;;47.50;;
6928;SDS011;3504;52.616;13.238;2022-10-31T23:02:43;76.43;;;48.73;;
6928;SDS011;3504;52.616;13.238;2022-10-31T23:07:44;83.33;;;49.30;;
6928;SDS011;3504;52.616;13.238;2022-10-31T23:12:44;94.47;;;52.47;;
6928;SDS011;3504;52.616;13.238;2022-10-31T23:18:03;82.90;;;49.20;;
6928;SDS011;3504;52.616;13.238;2022-10-31T23:23:04;83.20;;;49.27;;
6928;SDS011;3504;52.616;13.238;2022-10-31T23:28:04;78.20;;;49.27;;
6928;SDS011;3504;52.616;13.238;2022-10-31T23:33:05;89.77;;;51.03;;
6928;SDS011;3504;52.616;13.238;2022-10-31T23:38:06;86.57;;;50.23;;
6928;SDS011;3504;52.616;13.238;2022-10-31T23:43:06;85.70;;;49.43;;
6928;SDS011;3504;52.616;13.238;2022-10-31T23:48:07;76.20;;;48.37;;
6928;SDS011;3504;52.616;13.238;2022-10-31T23:53:08;80.43;;;49.23;;
6928;SDS011;3504;52.616;13.238;2022-10-31T23:58:08;79.33;;;48.70;;
